createdAt,value
2019-02-20T00:01:49.080Z,101147.94
2019-02-20T00:04:17.526Z,101143.46
2019-02-20T00:06:45.946Z,101147.86
2019-02-20T00:09:14.390Z,101144.63
2019-02-20T00:11:42.835Z,101148.16
2019-02-20T00:14:11.274Z,101147.30
2019-02-20T00:16:39.690Z,101150.55
2019-02-20T00:19:08.130Z,101143.88
2019-02-20T00:21:36.566Z,101139.55
2019-02-20T00:24:05.002Z,101141.83
2019-02-20T00:26:33.429Z,101145.78
2019-02-20T00:29:01.845Z,101142.70
2019-02-20T00:31:30.288Z,101147.83
2019-02-20T00:33:58.720Z,101153.78
2019-02-20T00:36:27.139Z,101147.45
2019-02-20T00:38:55.574Z,101154.95
2019-02-20T00:41:24.052Z,101148.81
2019-02-20T00:43:54.128Z,101143.50
2019-02-20T00:46:33.374Z,101140.42
2019-02-20T00:49:03.420Z,101145.84
2019-02-20T00:51:39.301Z,101150.14
2019-02-20T00:54:09.353Z,101142.81
2019-02-20T00:56:37.980Z,101149.80
2019-02-20T00:59:06.436Z,101151.20
2019-02-20T01:01:34.841Z,101156.63
2019-02-20T01:04:03.422Z,101157.27
2019-02-20T01:06:31.856Z,101151.31
2019-02-20T01:09:00.444Z,101163.23
2019-02-20T01:11:28.891Z,101160.15
2019-02-20T01:13:57.294Z,101164.55
2019-02-20T01:16:25.792Z,101168.50
2019-02-20T01:18:54.300Z,101164.70
2019-02-20T01:21:22.693Z,101166.98
2019-02-20T01:23:51.112Z,101168.50
2019-02-20T01:26:19.675Z,101170.20
2019-02-20T01:28:48.078Z,101168.16
2019-02-20T01:31:16.600Z,101172.94
2019-02-20T01:33:45.005Z,101175.17
2019-02-20T01:36:13.438Z,101171.03
2019-02-20T01:38:41.869Z,101172.02
2019-02-20T01:41:10.291Z,101160.75
2019-02-20T01:43:38.746Z,101159.23
2019-02-20T01:46:07.166Z,101158.59
2019-02-20T01:48:35.624Z,101164.89
2019-02-20T01:51:04.030Z,101152.11
2019-02-20T01:53:32.451Z,101147.09
2019-02-20T01:56:00.927Z,101149.98
2019-02-20T01:58:29.367Z,101151.98
2019-02-20T02:00:57.811Z,101150.47
2019-02-20T02:03:26.241Z,101149.98
2019-02-20T02:05:54.665Z,101153.05
2019-02-20T02:08:23.139Z,101150.47
2019-02-20T02:10:51.566Z,101147.17
2019-02-20T02:13:19.976Z,101144.81
2019-02-20T02:15:48.567Z,101145.58
2019-02-20T02:18:16.991Z,101144.81
2019-02-20T02:20:46.286Z,101152.63
2019-02-20T02:23:19.937Z,101146.88
2019-02-20T02:25:44.847Z,101153.66
2019-02-20T02:28:13.256Z,101155.89
2019-02-20T02:30:41.681Z,101149.91
2019-02-20T02:33:10.102Z,101144.59
2019-02-20T02:35:38.519Z,101140.00
2019-02-20T02:38:06.969Z,101145.58
2019-02-20T02:40:35.379Z,101145.12
2019-02-20T02:43:03.891Z,101136.92
2019-02-20T02:45:32.299Z,101138.75
2019-02-20T02:48:00.741Z,101127.98
2019-02-20T02:50:29.190Z,101130.36
2019-02-20T02:52:57.591Z,101133.44
2019-02-20T02:55:26.031Z,101138.63
2019-02-20T02:57:54.443Z,101134.80
2019-02-20T03:00:22.887Z,101140.91
2019-02-20T03:02:51.297Z,101140.91
2019-02-20T03:05:19.733Z,101142.27
2019-02-20T03:07:48.146Z,101141.63
2019-02-20T03:10:16.559Z,101139.55
2019-02-20T03:12:44.978Z,101135.45
2019-02-20T03:15:13.426Z,101134.23
2019-02-20T03:17:41.836Z,101135.97
2019-02-20T03:20:10.245Z,101131.16
2019-02-20T03:22:38.680Z,101137.64
2019-02-20T03:25:08.057Z,101137.84
2019-02-20T03:27:36.457Z,101139.34
2019-02-20T03:30:07.037Z,101142.95
2019-02-20T03:32:35.453Z,101135.75
2019-02-20T03:35:04.745Z,101139.66
2019-02-20T03:37:33.180Z,101139.50
2019-02-20T03:40:01.618Z,101145.73
2019-02-20T03:42:30.108Z,101142.66
2019-02-20T03:44:58.550Z,101146.52
2019-02-20T03:47:27.059Z,101140.56
2019-02-20T03:49:55.490Z,101141.21
2019-02-20T03:52:24.013Z,101139.34
2019-02-20T03:54:52.422Z,101144.70
2019-02-20T03:57:20.845Z,101145.38
2019-02-20T03:59:49.269Z,101149.67
2019-02-20T04:02:17.692Z,101150.12
2019-02-20T04:04:46.176Z,101161.05
2019-02-20T04:07:14.733Z,101160.70
2019-02-20T04:09:43.140Z,101169.88
2019-02-20T04:12:11.571Z,101159.19
2019-02-20T04:14:39.980Z,101166.51
2019-02-20T04:17:08.387Z,101166.16
2019-02-20T04:19:36.807Z,101161.05
2019-02-20T04:22:05.227Z,101162.75
2019-02-20T04:24:33.651Z,101160.41
2019-02-20T04:27:02.068Z,101160.41
2019-02-20T04:29:30.574Z,101161.09
2019-02-20T04:32:01.760Z,101162.98
2019-02-20T04:34:30.209Z,101159.73
2019-02-20T04:36:58.645Z,101159.73
2019-02-20T04:39:27.075Z,101157.14
2019-02-20T04:41:55.505Z,101158.77
2019-02-20T04:44:23.911Z,101169.70
2019-02-20T04:46:52.347Z,101168.67
2019-02-20T04:49:20.764Z,101169.28
2019-02-20T04:51:49.179Z,101171.06
2019-02-20T04:54:17.623Z,101166.55
2019-02-20T04:56:46.073Z,101173.80
2019-02-20T04:59:14.533Z,101171.41
2019-02-20T05:01:42.961Z,101178.73
2019-02-20T05:04:11.385Z,101178.84
2019-02-20T05:06:39.824Z,101178.23
2019-02-20T05:09:08.545Z,101184.30
2019-02-20T05:11:37.017Z,101188.28
2019-02-20T05:14:05.450Z,101195.34
2019-02-20T05:16:33.900Z,101190.17
2019-02-20T05:19:02.315Z,101188.81
2019-02-20T05:21:30.728Z,101193.25
2019-02-20T05:23:59.180Z,101188.81
2019-02-20T05:26:27.597Z,101194.27
2019-02-20T05:28:56.004Z,101192.00
2019-02-20T05:31:24.424Z,101193.25
2019-02-20T05:33:52.860Z,101191.55
2019-02-20T05:36:21.263Z,101193.25
2019-02-20T05:38:49.717Z,101188.40
2019-02-20T05:41:18.106Z,101193.75
2019-02-20T05:43:46.592Z,101194.62
2019-02-20T05:46:15.040Z,101200.58
2019-02-20T05:48:43.481Z,101201.94
2019-02-20T05:51:11.921Z,101203.95
2019-02-20T05:53:40.359Z,101199.59
2019-02-20T05:56:08.777Z,101196.89
2019-02-20T05:58:37.202Z,101206.75
2019-02-20T06:01:05.638Z,101206.59
2019-02-20T06:03:34.075Z,101207.81
2019-02-20T06:06:02.521Z,101210.20
2019-02-20T06:08:30.957Z,101208.11
2019-02-20T06:10:59.380Z,101220.77
2019-02-20T06:13:27.806Z,101219.75
2019-02-20T06:15:56.227Z,101236.34
2019-02-20T06:18:24.769Z,101225.56
2019-02-20T06:20:53.242Z,101225.27
2019-02-20T06:23:21.675Z,101226.78
2019-02-20T06:25:50.086Z,101223.06
2019-02-20T06:28:18.532Z,101219.61
2019-02-20T06:30:47.072Z,101226.92
2019-02-20T06:33:15.490Z,101226.63
2019-02-20T06:35:43.934Z,101220.10
2019-02-20T06:38:12.343Z,101224.92
2019-02-20T06:40:40.766Z,101229.36
2019-02-20T06:43:09.185Z,101239.94
2019-02-20T06:45:37.639Z,101247.11
2019-02-20T06:48:06.094Z,101245.63
2019-02-20T06:50:34.513Z,101248.48
2019-02-20T06:53:02.945Z,101249.01
2019-02-20T06:55:31.348Z,101249.50
2019-02-20T06:57:59.796Z,101256.67
2019-02-20T07:00:28.210Z,101258.19
2019-02-20T07:02:56.635Z,101254.61
2019-02-20T07:05:33.182Z,101262.13
2019-02-20T07:08:10.376Z,101258.03
2019-02-20T07:10:59.852Z,101259.20
2019-02-20T07:13:31.437Z,101264.77
2019-02-20T07:16:14.717Z,101259.94
2019-02-20T07:18:55.320Z,101263.39
2019-02-20T07:21:35.596Z,101266.33
2019-02-20T07:24:09.970Z,101264.38
2019-02-20T07:26:53.266Z,101266.77
2019-02-20T07:29:30.506Z,101264.61
2019-02-20T07:31:58.898Z,101266.47
2019-02-20T07:34:27.360Z,101272.52
2019-02-20T07:36:55.762Z,101270.42
2019-02-20T07:39:24.172Z,101277.74
2019-02-20T07:41:52.601Z,101276.52
2019-02-20T07:44:21.048Z,101279.11
2019-02-20T07:46:49.464Z,101276.03
2019-02-20T07:49:17.916Z,101277.10
2019-02-20T07:51:46.346Z,101275.94
2019-02-20T07:54:14.787Z,101280.00
2019-02-20T07:56:43.180Z,101280.05
2019-02-20T07:59:11.692Z,101284.30
2019-02-20T08:01:40.104Z,101286.73
2019-02-20T08:04:08.525Z,101286.09
2019-02-20T08:06:36.929Z,101289.47
2019-02-20T08:09:06.007Z,101293.42
2019-02-20T08:11:34.420Z,101297.22
2019-02-20T08:14:02.857Z,101294.34
2019-02-20T08:16:31.286Z,101304.13
2019-02-20T08:18:59.716Z,101306.57
2019-02-20T08:21:28.148Z,101303.11
2019-02-20T08:23:56.576Z,101307.55
2019-02-20T08:26:24.987Z,101312.38
2019-02-20T08:28:53.386Z,101318.19
2019-02-20T08:31:21.816Z,101316.67
2019-02-20T08:33:50.266Z,101316.19
2019-02-20T08:36:18.721Z,101319.06
2019-02-20T08:38:47.093Z,101320.77
2019-02-20T08:41:15.535Z,101319.94
2019-02-20T08:43:43.947Z,101318.27
2019-02-20T08:46:12.383Z,101325.25
2019-02-20T08:48:40.791Z,101324.38
2019-02-20T08:51:09.242Z,101331.30
2019-02-20T08:53:37.677Z,101338.81
2019-02-20T08:56:06.122Z,101341.92
2019-02-20T08:58:34.751Z,101342.77
2019-02-20T09:01:03.553Z,101346.03
2019-02-20T09:03:31.999Z,101349.98
2019-02-20T09:06:00.423Z,101355.30
2019-02-20T09:08:28.921Z,101358.57
2019-02-20T09:10:57.479Z,101355.98
2019-02-20T09:13:25.956Z,101351.05
2019-02-20T09:15:54.395Z,101354.27
2019-02-20T09:18:23.105Z,101350.12
2019-02-20T09:20:51.598Z,101362.13
2019-02-20T09:23:20.019Z,101368.28
2019-02-20T09:25:48.477Z,101364.91
2019-02-20T09:28:16.891Z,101367.49
2019-02-20T09:30:45.309Z,101364.61
2019-02-20T09:33:14.093Z,101365.98
2019-02-20T09:35:42.608Z,101370.81
2019-02-20T09:38:11.041Z,101364.70
2019-02-20T09:40:39.476Z,101366.11
2019-02-20T09:43:09.522Z,101366.46
2019-02-20T09:45:41.853Z,101369.58
2019-02-20T09:48:08.093Z,101372.95
2019-02-20T09:50:36.506Z,101376.26
2019-02-20T09:53:04.950Z,101380.42
2019-02-20T09:55:33.355Z,101377.39
2019-02-20T09:58:01.798Z,101380.66
2019-02-20T10:00:30.223Z,101378.99
2019-02-20T10:02:58.643Z,101384.31
2019-02-20T10:05:27.102Z,101382.80
2019-02-20T10:07:55.513Z,101385.53
2019-02-20T10:10:23.929Z,101384.02
2019-02-20T10:12:52.373Z,101382.34
2019-02-20T10:15:21.054Z,101387.14
2019-02-20T10:17:49.496Z,101390.60
2019-02-20T10:20:17.933Z,101385.28
2019-02-20T10:22:46.447Z,101387.38
2019-02-20T10:25:14.863Z,101390.98
2019-02-20T10:27:43.306Z,101392.05
2019-02-20T10:30:16.852Z,101392.20
2019-02-20T10:32:45.290Z,101388.44
2019-02-20T10:35:14.093Z,101378.08
2019-02-20T10:37:42.531Z,101377.78
2019-02-20T10:40:11.889Z,101378.63
2019-02-20T10:42:40.325Z,101380.75
2019-02-20T10:45:11.487Z,101380.86
2019-02-20T10:47:40.025Z,101385.72
2019-02-20T10:50:12.591Z,101385.05
2019-02-20T10:52:41.033Z,101379.23
2019-02-20T10:55:10.414Z,101379.95
2019-02-20T10:57:38.902Z,101381.96
2019-02-20T11:00:24.043Z,101379.00
2019-02-20T11:02:47.332Z,101378.20
2019-02-20T11:05:16.111Z,101377.86
2019-02-20T11:07:44.546Z,101373.46
2019-02-20T11:10:12.982Z,101381.66
2019-02-20T11:12:41.427Z,101373.31
2019-02-20T11:15:10.072Z,101382.88
2019-02-20T11:17:38.507Z,101377.11
2019-02-20T11:20:09.552Z,101379.35
2019-02-20T11:22:37.965Z,101375.10
2019-02-20T11:25:09.538Z,101379.70
2019-02-20T11:27:39.480Z,101372.86
2019-02-20T11:30:11.292Z,101373.92
2019-02-20T11:32:39.739Z,101371.87
2019-02-20T11:35:09.004Z,101371.87
2019-02-20T11:37:37.475Z,101372.22
2019-02-20T11:40:07.899Z,101369.63
2019-02-20T11:42:36.328Z,101370.08
2019-02-20T11:45:07.306Z,101364.95
2019-02-20T11:47:35.755Z,101361.53
2019-02-20T11:50:07.809Z,101360.81
2019-02-20T11:52:38.303Z,101363.89
2019-02-20T11:55:09.172Z,101360.81
2019-02-20T11:57:37.597Z,101354.97
2019-02-20T12:00:11.810Z,101350.44
2019-02-20T12:02:42.127Z,101352.40
2019-02-20T12:05:10.860Z,101349.38
2019-02-20T12:07:39.308Z,101353.13
2019-02-20T12:10:12.606Z,101345.19
2019-02-20T12:12:40.926Z,101350.17
2019-02-20T12:15:09.599Z,101352.95
2019-02-20T12:17:38.042Z,101339.42
2019-02-20T12:20:10.550Z,101341.17
2019-02-20T12:22:38.974Z,101338.44
2019-02-20T12:25:10.111Z,101338.05
2019-02-20T12:27:38.685Z,101333.61
2019-02-20T12:30:11.889Z,101338.05
2019-02-20T12:32:40.384Z,101336.50
2019-02-20T12:35:09.657Z,101333.77
2019-02-20T12:37:38.244Z,101341.32
2019-02-20T12:40:11.081Z,101334.94
2019-02-20T12:42:39.542Z,101331.52
2019-02-20T12:45:08.940Z,101332.05
2019-02-20T12:47:37.357Z,101328.79
2019-02-20T12:50:10.740Z,101331.75
2019-02-20T12:52:39.163Z,101333.61
2019-02-20T12:55:08.428Z,101333.61
2019-02-20T12:57:36.862Z,101330.88
2019-02-20T13:00:08.342Z,101333.27
2019-02-20T13:02:36.765Z,101328.30
2019-02-20T13:05:06.740Z,101330.61
2019-02-20T13:07:35.158Z,101329.47
2019-02-20T13:10:03.761Z,101330.69
2019-02-20T13:12:32.179Z,101329.47
2019-02-20T13:15:00.646Z,101323.02
2019-02-20T13:17:29.071Z,101325.45
2019-02-20T13:22:25.302Z,101321.31
2019-02-20T13:24:53.740Z,101318.92
2019-02-20T13:27:23.058Z,101317.25
2019-02-20T13:29:51.632Z,101312.31
2019-02-20T13:32:20.055Z,101315.05
2019-02-20T13:34:48.495Z,101307.00
2019-02-20T13:37:16.936Z,101311.73
2019-02-20T13:39:45.338Z,101310.72
2019-02-20T13:42:13.778Z,101301.87
2019-02-20T13:44:42.212Z,101298.48
2019-02-20T13:49:38.076Z,101305.09
2019-02-20T13:52:06.668Z,101297.05
2019-02-20T13:54:35.690Z,101307.34
2019-02-20T13:57:04.276Z,101303.39
2019-02-20T13:59:33.057Z,101301.15
2019-02-20T14:02:01.524Z,101303.23
2019-02-20T14:04:29.950Z,101296.70
2019-02-20T14:06:59.746Z,101296.70
2019-02-20T14:09:28.285Z,101293.63
2019-02-20T14:11:56.688Z,101287.94
2019-02-20T14:14:25.107Z,101289.15
2019-02-20T14:16:53.914Z,101288.66
2019-02-20T14:19:22.344Z,101291.23
2019-02-20T14:21:50.768Z,101290.17
2019-02-20T14:24:19.181Z,101287.94
2019-02-20T14:26:47.626Z,101291.54
2019-02-20T14:29:16.072Z,101290.81
2019-02-20T14:31:44.470Z,101281.25
2019-02-20T14:34:13.188Z,101280.26
2019-02-20T14:36:41.640Z,101280.95
2019-02-20T14:39:10.086Z,101274.86
2019-02-20T14:41:38.496Z,101281.20
2019-02-20T14:44:07.010Z,101280.07
2019-02-20T14:46:36.327Z,101284.17
2019-02-20T14:49:04.955Z,101284.02
2019-02-20T14:51:33.396Z,101282.66
2019-02-20T14:54:01.822Z,101278.40
2019-02-20T14:56:30.252Z,101280.48
2019-02-20T14:58:58.666Z,101276.38
2019-02-20T15:01:27.094Z,101277.11
2019-02-20T15:03:55.624Z,101275.44
2019-02-20T15:06:24.066Z,101270.98
2019-02-20T15:08:52.501Z,101273.34
2019-02-20T15:11:20.935Z,101272.50
2019-02-20T15:13:49.373Z,101264.08
2019-02-20T15:16:17.810Z,101265.82
2019-02-20T15:18:46.240Z,101271.33
2019-02-20T15:21:14.668Z,101272.05
2019-02-20T15:23:43.384Z,101269.47
2019-02-20T15:26:11.803Z,101274.56
2019-02-20T15:28:40.231Z,101273.19
2019-02-20T15:31:08.678Z,101279.12
2019-02-20T15:33:37.083Z,101274.98
2019-02-20T15:36:05.506Z,101279.92
2019-02-20T15:38:34.014Z,101276.34
2019-02-20T15:41:02.714Z,101273.95
2019-02-20T15:43:31.116Z,101275.67
2019-02-20T15:45:59.627Z,101278.13
2019-02-20T15:48:28.042Z,101272.29
2019-02-20T15:50:56.480Z,101275.55
2019-02-20T15:55:52.267Z,101266.33
2019-02-20T15:58:20.973Z,101268.72
2019-02-20T16:00:49.475Z,101269.36
2019-02-20T16:03:17.915Z,101264.24
2019-02-20T16:05:46.456Z,101266.48
2019-02-20T16:08:14.941Z,101269.70
2019-02-20T16:10:43.362Z,101270.43
2019-02-20T16:13:11.854Z,101270.47
2019-02-20T16:15:40.375Z,101278.63
2019-02-20T16:18:08.804Z,101277.13
2019-02-20T16:20:37.247Z,101279.89
2019-02-20T16:23:05.694Z,101275.89
2019-02-20T16:25:34.136Z,101278.33
2019-02-20T16:28:02.626Z,101274.70
2019-02-20T16:30:31.057Z,101273.77
2019-02-20T16:33:00.798Z,101271.80
2019-02-20T16:35:29.267Z,101278.48
2019-02-20T16:37:57.715Z,101277.81
2019-02-20T16:40:26.223Z,101281.91
2019-02-20T16:42:54.661Z,101277.96
2019-02-20T16:45:26.155Z,101280.20
2019-02-20T16:47:54.927Z,101279.55
2019-02-20T16:50:23.463Z,101281.91
2019-02-20T16:52:51.865Z,101278.19
2019-02-20T16:55:22.397Z,101283.27
2019-02-20T16:57:56.847Z,101281.91
2019-02-20T17:00:22.118Z,101288.40
2019-02-20T17:02:50.877Z,101280.70
2019-02-20T17:05:19.542Z,101282.93
2019-02-20T17:07:47.987Z,101285.06
2019-02-20T17:10:16.742Z,101288.17
2019-02-20T17:12:45.277Z,101288.67
2019-02-20T17:15:15.935Z,101285.22
2019-02-20T17:17:44.359Z,101290.04
2019-02-20T17:20:17.575Z,101294.78
2019-02-20T17:22:46.180Z,101286.81
2019-02-20T17:25:15.259Z,101293.34
2019-02-20T17:27:43.764Z,101299.16
2019-02-20T17:30:17.045Z,101301.39
2019-02-20T17:32:46.026Z,101295.97
2019-02-20T17:35:17.150Z,101297.14
2019-02-20T17:37:45.886Z,101302.80
2019-02-20T17:40:15.418Z,101315.11
2019-02-20T17:42:44.007Z,101312.72
2019-02-20T17:45:19.353Z,101312.95
2019-02-20T17:47:48.072Z,101314.95
2019-02-20T17:50:22.486Z,101316.52
2019-02-20T17:52:50.907Z,101308.55
2019-02-20T17:55:19.353Z,101313.14
2019-02-20T17:57:47.767Z,101318.41
2019-02-20T18:00:19.507Z,101319.78
2019-02-20T18:02:47.933Z,101325.25
2019-02-20T18:05:16.362Z,101329.54
2019-02-20T18:07:49.706Z,101340.48
2019-02-20T18:10:15.278Z,101344.72
2019-02-20T18:12:43.697Z,101347.80
2019-02-20T18:15:15.408Z,101354.48
2019-02-20T18:17:43.839Z,101350.53
2019-02-20T18:20:12.541Z,101353.84
2019-02-20T18:22:40.952Z,101360.19
2019-02-20T18:25:10.848Z,101364.28
2019-02-20T18:27:39.237Z,101363.06
2019-02-20T18:30:15.548Z,101363.41
2019-02-20T18:32:43.999Z,101369.33
2019-02-20T18:35:14.729Z,101367.17
2019-02-20T18:37:43.147Z,101372.48
2019-02-20T18:40:14.651Z,101371.61
2019-02-20T18:42:43.079Z,101377.08
2019-02-20T18:45:13.356Z,101389.61
2019-02-20T18:47:42.003Z,101376.59
2019-02-20T18:50:14.786Z,101376.93
2019-02-20T18:52:43.192Z,101380.19
2019-02-20T18:55:15.295Z,101382.20
2019-02-20T18:57:43.740Z,101389.04
2019-02-20T19:00:21.806Z,101389.68
2019-02-20T19:02:50.350Z,101395.64
2019-02-20T19:05:19.311Z,101393.28
2019-02-20T19:07:48.047Z,101385.58
2019-02-20T19:10:22.624Z,101389.77
2019-02-20T19:13:15.458Z,101393.63
2019-02-20T19:16:18.512Z,101388.39
2019-02-20T19:19:02.083Z,101385.86
2019-02-20T19:21:44.079Z,101396.45
2019-02-20T19:24:31.771Z,101392.89
2019-02-20T19:27:03.285Z,101394.20
2019-02-20T19:29:34.776Z,101402.98
2019-02-20T19:32:15.070Z,101402.45
2019-02-20T19:34:55.611Z,101401.47
2019-02-20T19:37:43.739Z,101400.64
2019-02-20T19:40:27.246Z,101405.42
2019-02-20T19:43:04.248Z,101405.57
2019-02-20T19:46:06.014Z,101403.03
2019-02-20T19:48:43.530Z,101405.77
2019-02-20T19:56:27.795Z,101412.95
2019-02-20T19:59:14.584Z,101409.95
2019-02-20T20:02:11.716Z,101408.70
2019-02-20T20:04:58.508Z,101413.06
2019-02-20T20:07:45.299Z,101411.55
2019-02-20T20:10:19.401Z,101419.38
2019-02-20T20:12:56.394Z,101422.90
2019-02-20T20:15:42.352Z,101420.25
2019-02-20T20:18:25.176Z,101424.84
2019-02-20T20:21:14.597Z,101429.47
2019-02-20T20:24:05.686Z,101429.09
2019-02-20T20:26:47.291Z,101433.90
2019-02-20T20:29:50.407Z,101434.58
2019-02-20T20:32:21.970Z,101431.74
2019-02-20T20:34:56.482Z,101436.72
2019-02-20T20:37:46.055Z,101432.81
2019-02-20T20:45:30.463Z,101435.84
2019-02-20T20:48:18.556Z,101429.65
2019-02-20T20:51:11.257Z,101435.20
2019-02-20T20:53:56.297Z,101445.88
2019-02-20T20:56:30.588Z,101439.53
2019-02-20T20:59:04.974Z,101439.53
2019-02-20T21:01:45.553Z,101438.78
2019-02-20T21:04:35.120Z,101435.92
2019-02-20T21:07:15.629Z,101438.66
2019-02-20T21:09:58.805Z,101434.06
2019-02-20T21:12:47.041Z,101433.30
2019-02-20T21:15:24.437Z,101437.30
2019-02-20T21:18:04.827Z,101434.48
2019-02-20T21:20:51.512Z,101441.02
2019-02-20T21:23:40.950Z,101442.88
2019-02-20T21:26:20.937Z,101441.25
2019-02-20T21:29:09.355Z,101443.14
2019-02-20T21:31:40.834Z,101433.19
2019-02-20T21:34:21.293Z,101431.33
2019-02-20T21:36:58.227Z,101436.66
2019-02-20T21:39:35.599Z,101431.67
2019-02-20T21:42:22.237Z,101441.62
2019-02-20T21:45:11.849Z,101444.51
2019-02-20T21:48:04.069Z,101443.41
2019-02-20T21:50:48.139Z,101436.56
2019-02-20T21:53:31.648Z,101446.38
2019-02-20T21:56:05.887Z,101444.36
2019-02-20T21:58:45.861Z,101454.08
2019-02-20T22:01:44.395Z,101446.72
2019-02-20T22:04:18.493Z,101449.83
2019-02-20T22:06:49.971Z,101458.06
2019-02-20T22:09:23.895Z,101460.05
2019-02-20T22:12:30.245Z,101460.54
2019-02-20T22:15:16.428Z,101464.34
2019-02-20T22:17:59.789Z,101464.00
2019-02-20T22:20:39.971Z,101460.39
2019-02-20T22:23:20.489Z,101465.36
2019-02-20T22:26:19.355Z,101460.54
2019-02-20T22:28:53.421Z,101463.27
2019-02-20T22:32:00.603Z,101465.02
2019-02-20T22:34:37.185Z,101461.91
2019-02-20T22:37:23.756Z,101465.62
2019-02-20T22:40:13.453Z,101466.23
2019-02-20T22:43:01.675Z,101463.66
2019-02-20T22:45:42.273Z,101469.55
2019-02-20T22:48:31.870Z,101466.29
2019-02-20T22:51:11.855Z,101471.91
2019-02-20T22:53:43.324Z,101472.55
2019-02-20T22:56:40.225Z,101470.84
2019-02-20T22:59:29.864Z,101470.11
2019-02-20T23:04:57.820Z,101486.92
2019-02-20T23:07:34.891Z,101483.34
2019-02-20T23:10:22.525Z,101482.97
2019-02-20T23:12:54.017Z,101486.87
2019-02-20T23:15:22.430Z,101487.74
2019-02-20T23:17:50.863Z,101488.18
2019-02-20T23:20:19.259Z,101483.94
2019-02-20T23:22:47.691Z,101495.70
2019-02-20T23:25:16.093Z,101491.41
2019-02-20T23:27:44.541Z,101492.05
2019-02-20T23:30:13.388Z,101488.59
2019-02-20T23:32:43.273Z,101492.69
2019-02-20T23:35:11.871Z,101495.80
2019-02-20T23:37:40.291Z,101500.39
2019-02-20T23:40:09.970Z,101503.62
2019-02-20T23:42:38.373Z,101507.38
2019-02-20T23:45:08.937Z,101508.39
2019-02-20T23:47:37.384Z,101508.53
2019-02-20T23:50:07.644Z,101505.95
2019-02-20T23:52:36.058Z,101509.52
2019-02-20T23:55:06.133Z,101505.72
2019-02-20T23:57:34.539Z,101516.02
